createdAt,value
2018-09-17T00:01:04.821Z,9.83
2018-09-17T00:03:33.012Z,8.40
2018-09-17T00:06:01.134Z,8.93
2018-09-17T00:08:29.272Z,9.90
2018-09-17T00:10:57.438Z,9.23
2018-09-17T00:13:25.585Z,7.43
2018-09-17T00:15:53.721Z,10.23
2018-09-17T00:18:21.855Z,8.63
2018-09-17T00:20:50.032Z,11.70
2018-09-17T00:23:18.156Z,10.00
2018-09-17T00:25:46.312Z,8.93
2018-09-17T00:28:14.451Z,8.37
2018-09-17T00:30:42.633Z,11.93
2018-09-17T00:33:10.770Z,8.87
2018-09-17T00:35:38.905Z,11.17
2018-09-17T00:38:07.084Z,11.87
2018-09-17T00:40:35.252Z,18.23
2018-09-17T00:43:03.428Z,8.63
2018-09-17T00:45:31.609Z,11.67
2018-09-17T00:47:59.734Z,8.33
2018-09-17T00:50:27.881Z,9.30
2018-09-17T00:52:56.028Z,9.87
2018-09-17T00:55:24.237Z,9.40
2018-09-17T00:57:52.403Z,10.23
2018-09-17T01:00:20.644Z,9.30
2018-09-17T01:02:48.863Z,9.63
2018-09-17T01:05:17.125Z,9.20
2018-09-17T01:07:45.407Z,16.83
2018-09-17T01:10:13.580Z,10.80
2018-09-17T01:12:41.716Z,10.37
2018-09-17T01:15:09.903Z,12.97
2018-09-17T01:17:38.102Z,13.40
2018-09-17T01:20:06.313Z,13.20
2018-09-17T01:22:34.478Z,8.30
2018-09-17T01:25:02.590Z,9.63
2018-09-17T01:27:30.835Z,11.27
2018-09-17T01:29:58.941Z,10.07
2018-09-17T01:32:27.117Z,10.53
2018-09-17T01:34:55.255Z,11.27
2018-09-17T01:37:23.434Z,15.83
2018-09-17T01:39:51.593Z,9.40
2018-09-17T01:42:19.780Z,12.13
2018-09-17T01:44:47.949Z,11.67
2018-09-17T01:47:16.138Z,19.97
2018-09-17T01:49:44.372Z,17.87
2018-09-17T01:52:12.621Z,13.60
2018-09-17T01:54:40.897Z,11.77
2018-09-17T01:57:09.099Z,8.33
2018-09-17T01:59:37.859Z,12.00
2018-09-17T02:02:07.686Z,9.77
2018-09-17T02:04:36.320Z,14.73
2018-09-17T02:07:04.553Z,12.13
2018-09-17T02:09:33.899Z,12.23
2018-09-17T02:12:02.030Z,10.60
2018-09-17T02:14:30.167Z,12.03
2018-09-17T02:16:58.315Z,13.03
2018-09-17T02:19:26.547Z,15.17
2018-09-17T02:21:54.682Z,11.17
2018-09-17T02:24:22.861Z,11.37
2018-09-17T02:26:51.001Z,14.80
2018-09-17T02:29:20.291Z,9.60
2018-09-17T02:31:48.465Z,9.27
2018-09-17T02:34:16.836Z,9.40
2018-09-17T02:36:44.981Z,12.37
2018-09-17T02:39:13.199Z,9.03
2018-09-17T02:41:41.349Z,9.03
2018-09-17T02:44:09.485Z,9.30
2018-09-17T02:46:37.623Z,9.27
2018-09-17T02:49:05.935Z,10.27
2018-09-17T02:51:34.076Z,14.13
2018-09-17T02:54:03.023Z,12.67
2018-09-17T02:56:31.154Z,9.67
2018-09-17T02:59:00.482Z,8.70
2018-09-17T03:01:28.651Z,10.03
2018-09-17T03:03:56.811Z,8.77
2018-09-17T03:06:24.969Z,13.37
2018-09-17T03:08:53.184Z,11.00
2018-09-17T03:11:21.340Z,9.27
2018-09-17T03:13:49.549Z,10.17
2018-09-17T03:16:18.169Z,10.07
2018-09-17T03:18:53.189Z,10.83
2018-09-17T03:21:21.605Z,10.50
2018-09-17T03:23:49.786Z,11.33
2018-09-17T03:26:19.393Z,11.07
2018-09-17T03:28:48.243Z,9.90
2018-09-17T03:31:16.477Z,14.40
2018-09-17T03:33:44.625Z,10.10
2018-09-17T03:36:12.905Z,11.60
2018-09-17T03:38:42.746Z,10.70
2018-09-17T03:41:13.027Z,11.03
2018-09-17T03:43:42.485Z,14.77
2018-09-17T03:46:10.880Z,14.23
2018-09-17T03:48:39.816Z,9.80
2018-09-17T03:51:08.521Z,10.20
2018-09-17T03:53:37.003Z,9.83
2018-09-17T03:56:05.136Z,13.20
2018-09-17T03:58:33.439Z,13.17
2018-09-17T04:01:02.257Z,9.37
2018-09-17T04:03:30.379Z,9.73
2018-09-17T04:05:58.743Z,13.97
2018-09-17T04:08:26.984Z,11.97
2018-09-17T04:10:55.219Z,12.73
2018-09-17T04:13:23.393Z,10.43
2018-09-17T04:15:51.569Z,10.60
2018-09-17T04:18:19.671Z,13.93
2018-09-17T04:20:47.885Z,9.33
2018-09-17T04:23:20.289Z,11.00
2018-09-17T04:25:48.537Z,12.60
2018-09-17T04:28:16.684Z,9.87
2018-09-17T04:30:44.830Z,13.80
2018-09-17T04:33:13.084Z,11.97
2018-09-17T04:35:41.265Z,10.10
2018-09-17T04:38:09.503Z,13.07
2018-09-17T04:40:38.979Z,12.43
2018-09-17T04:43:07.201Z,10.23
2018-09-17T04:45:35.387Z,18.03
2018-09-17T04:48:03.871Z,20.90
2018-09-17T04:50:32.114Z,10.07
2018-09-17T04:53:00.425Z,10.83
2018-09-17T04:55:30.955Z,12.93
2018-09-17T04:57:59.162Z,16.90
2018-09-17T05:00:27.322Z,11.73
2018-09-17T05:02:56.987Z,22.87
2018-09-17T05:05:25.443Z,10.43
2018-09-17T05:07:53.561Z,11.33
2018-09-17T05:10:21.669Z,12.87
2018-09-17T05:12:50.131Z,15.07
2018-09-17T05:15:18.227Z,9.77
2018-09-17T05:17:46.395Z,12.23
2018-09-17T05:20:14.539Z,14.50
2018-09-17T05:22:42.677Z,16.73
2018-09-17T05:25:10.819Z,15.13
2018-09-17T05:27:39.059Z,15.07
2018-09-17T05:30:07.311Z,10.33
2018-09-17T05:32:35.484Z,12.43
2018-09-17T05:35:03.715Z,21.37
2018-09-17T05:37:31.879Z,8.83
2018-09-17T05:40:00.106Z,16.10
2018-09-17T05:42:28.262Z,15.00
2018-09-17T05:44:56.463Z,8.47
2018-09-17T05:47:24.987Z,12.20
2018-09-17T05:49:53.164Z,8.37
2018-09-17T05:52:21.328Z,9.77
2018-09-17T05:54:49.482Z,15.03
2018-09-17T05:57:17.668Z,9.77
2018-09-17T05:59:45.904Z,9.90
2018-09-17T06:02:14.057Z,7.83
2018-09-17T06:04:42.239Z,9.60
2018-09-17T06:07:10.581Z,11.97
2018-09-17T06:09:39.535Z,11.57
2018-09-17T06:12:07.723Z,9.63
2018-09-17T06:14:36.047Z,9.20
2018-09-17T06:17:04.155Z,9.47
2018-09-17T06:19:32.273Z,8.90
2018-09-17T06:22:00.469Z,9.40
2018-09-17T06:24:28.699Z,6.93
2018-09-17T06:26:56.879Z,7.83
2018-09-17T06:29:25.025Z,14.43
2018-09-17T06:31:53.227Z,12.80
2018-09-17T06:34:21.387Z,8.60
2018-09-17T06:36:50.279Z,19.60
2018-09-17T06:39:19.127Z,10.03
2018-09-17T06:41:47.333Z,9.90
2018-09-17T06:44:15.500Z,8.63
2018-09-17T06:46:43.633Z,14.70
2018-09-17T06:49:11.803Z,8.60
2018-09-17T06:51:39.979Z,15.93
2018-09-17T06:54:08.439Z,12.37
2018-09-17T06:56:36.591Z,14.10
2018-09-17T06:59:04.815Z,11.30
2018-09-17T07:01:33.189Z,18.63
2018-09-17T07:04:01.509Z,8.90
2018-09-17T07:06:30.345Z,24.53
2018-09-17T07:08:59.887Z,7.70
2018-09-17T07:11:28.039Z,11.83
2018-09-17T07:13:56.173Z,10.93
2018-09-17T07:16:25.335Z,20.57
2018-09-17T07:18:53.545Z,14.83
2018-09-17T07:21:21.719Z,10.27
2018-09-17T07:23:49.929Z,12.17
2018-09-17T07:26:18.150Z,10.07
2018-09-17T07:28:46.419Z,7.80
2018-09-17T07:31:14.585Z,17.13
2018-09-17T07:33:42.831Z,8.50
2018-09-17T07:36:11.401Z,12.80
2018-09-17T07:38:39.579Z,7.37
2018-09-17T07:41:07.729Z,11.23
2018-09-17T07:43:36.167Z,15.80
2018-09-17T07:46:04.922Z,8.20
2018-09-17T07:48:34.207Z,9.97
2018-09-17T07:51:03.776Z,11.50
2018-09-17T07:53:31.900Z,12.57
2018-09-17T07:56:00.313Z,15.77
2018-09-17T07:58:29.477Z,13.77
2018-09-17T08:00:57.631Z,19.23
2018-09-17T08:03:25.820Z,13.93
2018-09-17T08:05:53.969Z,11.00
2018-09-17T08:08:22.181Z,11.00
2018-09-17T08:10:50.358Z,9.33
2018-09-17T08:13:18.592Z,11.50
2018-09-17T08:15:46.837Z,15.20
2018-09-17T08:18:15.005Z,6.70
2018-09-17T08:20:43.151Z,10.83
2018-09-17T08:23:12.169Z,23.17
2018-09-17T08:25:40.315Z,8.43
2018-09-17T08:28:08.463Z,14.23
2018-09-17T08:30:36.609Z,9.13
2018-09-17T08:33:04.753Z,8.10
2018-09-17T08:35:32.999Z,8.20
2018-09-17T08:38:01.154Z,7.60
2018-09-17T08:40:29.403Z,13.80
2018-09-17T08:42:57.646Z,15.53
2018-09-17T08:45:25.832Z,10.37
2018-09-17T08:47:53.993Z,11.97
2018-09-17T08:50:22.175Z,15.23
2018-09-17T08:52:50.439Z,14.67
2018-09-17T08:56:24.693Z,11.73
2018-09-17T08:59:04.159Z,6.33
2018-09-17T09:01:37.972Z,12.10
2018-09-17T09:04:11.503Z,8.20
2018-09-17T09:06:45.107Z,7.20
2018-09-17T09:09:13.789Z,10.30
2018-09-17T09:11:47.432Z,4.60
2018-09-17T09:14:20.975Z,5.60
2018-09-17T09:16:49.138Z,10.27
2018-09-17T09:19:17.309Z,9.13
2018-09-17T09:21:45.531Z,10.00
2018-09-17T09:24:13.733Z,5.50
2018-09-17T09:26:41.937Z,5.43
2018-09-17T09:29:10.110Z,10.63
2018-09-17T09:31:38.329Z,8.30
2018-09-17T09:34:06.539Z,13.90
2018-09-17T09:36:34.739Z,10.30
2018-09-17T09:39:02.889Z,23.67
2018-09-17T09:41:31.148Z,8.80
2018-09-17T09:43:59.306Z,12.10
2018-09-17T09:46:27.503Z,9.87
2018-09-17T09:48:55.798Z,5.97
2018-09-17T09:51:23.963Z,4.00
2018-09-17T09:53:52.157Z,10.50
2018-09-17T09:56:20.349Z,9.00
2018-09-17T09:58:48.556Z,11.63
2018-09-17T10:01:22.115Z,5.17
2018-09-17T10:03:55.569Z,9.30
2018-09-17T10:06:23.688Z,3.23
2018-09-17T10:08:57.515Z,4.80
2018-09-17T10:11:31.328Z,9.43
2018-09-17T10:14:04.913Z,9.23
2018-09-17T10:16:33.090Z,9.27
2018-09-17T10:19:06.833Z,3.73
2018-09-17T10:21:34.986Z,4.30
2018-09-17T10:24:03.297Z,7.10
2018-09-17T10:26:32.288Z,24.47
2018-09-17T10:29:00.496Z,2.00
2018-09-17T10:31:28.640Z,2.40
2018-09-17T10:33:56.812Z,5.67
2018-09-17T10:36:25.022Z,7.50
2018-09-17T10:38:53.226Z,1.60
2018-09-17T10:41:21.368Z,8.67
2018-09-17T10:43:49.592Z,10.97
2018-09-17T10:46:17.743Z,3.30
2018-09-17T10:48:45.919Z,3.33
2018-09-17T10:51:14.065Z,3.40
2018-09-17T10:53:42.208Z,9.93
2018-09-17T10:56:10.380Z,4.47
2018-09-17T10:58:38.617Z,4.03
2018-09-17T11:01:06.829Z,7.50
2018-09-17T11:03:36.024Z,3.33
2018-09-17T11:06:04.165Z,6.63
2018-09-17T11:08:32.325Z,3.13
2018-09-17T11:11:00.578Z,4.17
2018-09-17T11:13:28.722Z,3.60
2018-09-17T11:15:56.905Z,1.73
2018-09-17T11:18:25.068Z,2.33
2018-09-17T11:20:53.178Z,1.77
2018-09-17T11:23:21.316Z,4.40
2018-09-17T11:25:49.519Z,3.10
2018-09-17T11:28:17.664Z,5.30
2018-09-17T11:30:45.794Z,3.23
2018-09-17T11:33:13.990Z,1.50
2018-09-17T11:35:42.213Z,14.00
2018-09-17T11:38:10.532Z,4.53
2018-09-17T11:40:38.638Z,5.87
2018-09-17T11:43:06.812Z,8.47
2018-09-17T11:45:34.912Z,4.17
2018-09-17T11:48:03.082Z,2.43
2018-09-17T11:50:31.265Z,3.83
2018-09-17T11:52:59.498Z,2.97
2018-09-17T11:55:27.713Z,4.17
2018-09-17T11:57:55.843Z,2.07
2018-09-17T12:00:29.393Z,5.57
2018-09-17T12:03:04.047Z,2.90
2018-09-17T12:05:37.619Z,4.10
2018-09-17T12:08:10.264Z,8.30
2018-09-17T12:10:38.468Z,5.53
2018-09-17T12:13:06.609Z,2.30
2018-09-17T12:15:39.024Z,10.40
2018-09-17T12:18:07.561Z,5.90
2018-09-17T12:20:36.181Z,5.47
2018-09-17T12:23:04.485Z,3.20
2018-09-17T12:25:32.836Z,5.50
2018-09-17T12:28:00.990Z,1.50
2018-09-17T12:30:29.157Z,5.37
2018-09-17T12:32:57.299Z,2.10
2018-09-17T12:35:25.890Z,4.57
2018-09-17T12:37:54.117Z,2.30
2018-09-17T12:40:23.100Z,2.83
2018-09-17T12:42:51.421Z,3.67
2018-09-17T12:45:20.087Z,5.03
2018-09-17T12:47:48.267Z,1.30
2018-09-17T12:50:16.449Z,7.23
2018-09-17T12:52:44.721Z,1.80
2018-09-17T12:55:12.892Z,2.17
2018-09-17T12:57:41.096Z,2.30
2018-09-17T13:00:10.049Z,4.73
2018-09-17T13:02:38.227Z,3.20
2018-09-17T13:05:06.584Z,4.50
2018-09-17T13:07:34.861Z,2.20
2018-09-17T13:10:03.009Z,1.90
2018-09-17T13:12:31.187Z,3.83
2018-09-17T13:14:59.337Z,2.60
2018-09-17T13:17:27.511Z,3.03
2018-09-17T13:19:55.713Z,2.00
2018-09-17T13:22:23.912Z,11.90
2018-09-17T13:24:52.538Z,2.20
2018-09-17T13:27:20.715Z,3.83
2018-09-17T13:29:48.895Z,2.43
2018-09-17T13:32:17.065Z,2.50
2018-09-17T13:34:45.212Z,6.63
2018-09-17T13:37:13.429Z,4.57
2018-09-17T13:39:41.580Z,3.40
2018-09-17T13:42:09.764Z,2.60
2018-09-17T13:44:38.182Z,2.87
2018-09-17T13:47:06.111Z,1.90
2018-09-17T13:49:34.268Z,2.50
2018-09-17T13:52:02.489Z,1.33
2018-09-17T13:54:30.651Z,2.20
2018-09-17T13:56:58.802Z,1.93
2018-09-17T13:59:26.954Z,2.60
2018-09-17T14:01:55.251Z,5.53
2018-09-17T14:04:23.614Z,4.03
2018-09-17T14:06:51.669Z,4.00
2018-09-17T14:09:19.875Z,2.30
2018-09-17T14:11:48.046Z,12.20
2018-09-17T14:14:16.200Z,6.73
2018-09-17T14:16:44.354Z,4.70
2018-09-17T14:19:13.165Z,5.23
2018-09-17T14:21:41.339Z,5.50
2018-09-17T14:24:09.468Z,4.50
2018-09-17T14:26:37.622Z,3.63
2018-09-17T14:29:05.886Z,3.00
2018-09-17T14:31:39.478Z,3.70
2018-09-17T14:34:07.672Z,2.30
2018-09-17T14:36:35.852Z,3.67
2018-09-17T14:39:05.396Z,4.93
2018-09-17T14:41:33.632Z,4.73
2018-09-17T14:44:01.835Z,8.27
2018-09-17T14:46:30.151Z,7.43
2018-09-17T14:48:59.013Z,5.40
2018-09-17T14:51:27.118Z,6.63
2018-09-17T14:53:55.339Z,6.70
2018-09-17T14:56:23.548Z,3.53
2018-09-17T14:58:51.770Z,1.80
2018-09-17T15:01:19.965Z,6.33
2018-09-17T15:03:48.133Z,1.80
2018-09-17T15:06:16.290Z,6.53
2018-09-17T15:08:44.555Z,6.13
2018-09-17T15:11:12.620Z,2.60
2018-09-17T15:13:42.102Z,3.90
2018-09-17T15:16:10.388Z,2.43
2018-09-17T15:18:38.547Z,5.07
2018-09-17T15:21:06.756Z,6.33
2018-09-17T15:23:34.909Z,7.50
2018-09-17T15:26:03.113Z,6.87
2018-09-17T15:28:32.467Z,8.90
2018-09-17T15:31:00.730Z,8.37
2018-09-17T15:33:30.064Z,5.73
2018-09-17T15:35:58.238Z,4.87
2018-09-17T15:38:26.449Z,7.60
2018-09-17T15:40:54.613Z,3.40
2018-09-17T15:43:22.793Z,6.63
2018-09-17T15:45:50.921Z,5.70
2018-09-17T15:48:20.007Z,7.33
2018-09-17T15:50:48.179Z,2.80
2018-09-17T15:53:16.313Z,7.33
2018-09-17T15:55:44.573Z,9.00
2018-09-17T15:58:12.842Z,4.90
2018-09-17T16:00:41.304Z,6.90
2018-09-17T16:03:09.617Z,9.30
2018-09-17T16:05:37.824Z,14.83
2018-09-17T16:08:06.548Z,12.83
2018-09-17T16:10:34.747Z,9.30
2018-09-17T16:13:03.004Z,8.80
2018-09-17T16:15:31.484Z,15.50
2018-09-17T16:17:59.818Z,8.43
2018-09-17T16:20:27.957Z,7.37
2018-09-17T16:22:56.571Z,8.70
2018-09-17T16:25:24.755Z,6.40
2018-09-17T16:27:52.981Z,4.80
2018-09-17T16:30:21.449Z,8.43
2018-09-17T16:32:49.613Z,9.30
2018-09-17T16:35:18.251Z,6.20
2018-09-17T16:37:46.432Z,8.43
2018-09-17T16:40:14.613Z,11.50
2018-09-17T16:42:42.921Z,9.00
2018-09-17T16:45:11.111Z,13.67
2018-09-17T16:47:39.273Z,23.00
2018-09-17T16:50:07.509Z,12.07
2018-09-17T16:52:35.773Z,9.60
2018-09-17T16:55:04.041Z,15.13
2018-09-17T16:57:32.207Z,6.77
2018-09-17T17:00:00.389Z,6.10
2018-09-17T17:02:28.629Z,12.53
2018-09-17T17:04:56.886Z,11.23
2018-09-17T17:07:25.102Z,11.00
2018-09-17T17:09:53.373Z,27.57
2018-09-17T17:12:22.037Z,4.93
2018-09-17T17:14:50.311Z,10.27
2018-09-17T17:17:18.599Z,19.30
2018-09-17T17:19:46.767Z,8.60
2018-09-17T17:22:14.960Z,12.53
2018-09-17T17:24:43.227Z,20.27
2018-09-17T17:27:11.403Z,13.63
2018-09-17T17:29:39.665Z,13.53
2018-09-17T17:32:08.266Z,10.30
2018-09-17T17:34:36.426Z,10.50
2018-09-17T17:37:04.667Z,11.00
2018-09-17T17:39:32.916Z,13.27
2018-09-17T17:42:01.076Z,18.63
2018-09-17T17:44:29.366Z,19.37
2018-09-17T17:46:58.291Z,21.47
2018-09-17T17:49:26.490Z,32.33
2018-09-17T17:51:54.703Z,24.20
2018-09-17T17:54:22.964Z,45.67
2018-09-17T17:56:51.151Z,35.50
2018-09-17T17:59:19.330Z,34.03
2018-09-17T18:01:47.593Z,45.07
2018-09-17T18:04:15.910Z,29.83
2018-09-17T18:06:44.137Z,30.10
2018-09-17T18:09:13.036Z,27.07
2018-09-17T18:11:41.580Z,27.73
2018-09-17T18:14:10.249Z,25.63
2018-09-17T18:16:38.521Z,37.30
2018-09-17T18:19:06.831Z,36.63
2018-09-17T18:21:35.777Z,35.53
2018-09-17T18:24:03.917Z,43.70
2018-09-17T18:26:32.685Z,45.23
2018-09-17T18:29:00.842Z,48.80
2018-09-17T18:31:29.249Z,34.23
2018-09-17T18:33:57.425Z,41.47
2018-09-17T18:36:25.648Z,25.80
2018-09-17T18:38:53.852Z,43.63
2018-09-17T18:41:22.131Z,27.30
2018-09-17T18:43:50.322Z,33.07
2018-09-17T18:46:18.493Z,35.70
2018-09-17T18:48:46.769Z,30.37
2018-09-17T18:51:15.059Z,37.50
2018-09-17T18:53:43.278Z,23.07
2018-09-17T18:56:11.524Z,24.20
2018-09-17T18:58:39.688Z,33.63
2018-09-17T19:01:07.904Z,27.43
2018-09-17T19:03:36.118Z,28.70
2018-09-17T19:06:04.391Z,30.83
2018-09-17T19:08:32.665Z,36.20
2018-09-17T19:11:00.877Z,25.33
2018-09-17T19:13:29.563Z,26.40
2018-09-17T19:15:58.588Z,28.83
2018-09-17T19:18:26.767Z,26.87
2018-09-17T19:20:55.278Z,78.10
2018-09-17T19:23:28.658Z,28.00
2018-09-17T19:25:57.022Z,31.97
2018-09-17T19:28:30.512Z,38.33
2018-09-17T19:30:58.716Z,30.90
2018-09-17T19:33:26.978Z,26.23
2018-09-17T19:35:55.225Z,27.30
2018-09-17T19:38:29.966Z,31.67
2018-09-17T19:40:58.227Z,28.97
2018-09-17T19:43:26.449Z,32.80
2018-09-17T19:46:00.305Z,32.47
2018-09-17T19:48:28.564Z,28.07
2018-09-17T19:51:03.329Z,34.80
2018-09-17T19:53:31.994Z,31.00
2018-09-17T19:56:00.327Z,37.07
2018-09-17T19:58:33.915Z,23.87
2018-09-17T20:01:02.848Z,23.13
2018-09-17T20:03:31.095Z,23.47
2018-09-17T20:06:04.875Z,37.87
2018-09-17T20:08:33.041Z,32.27
2018-09-17T20:11:01.232Z,29.90
2018-09-17T20:13:30.299Z,26.20
2018-09-17T20:16:00.646Z,37.20
2018-09-17T20:18:28.936Z,30.63
2018-09-17T20:20:57.184Z,45.90
2018-09-17T20:23:25.429Z,25.87
2018-09-17T20:25:53.635Z,36.70
2018-09-17T20:28:21.767Z,26.80
2018-09-17T20:30:50.048Z,28.90
2018-09-17T20:33:18.661Z,24.33
2018-09-17T20:35:46.936Z,27.47
2018-09-17T20:38:15.217Z,29.43
2018-09-17T20:40:43.426Z,25.63
2018-09-17T20:43:11.635Z,29.23
2018-09-17T20:45:39.835Z,37.37
2018-09-17T20:48:07.979Z,29.33
2018-09-17T20:50:36.186Z,26.63
2018-09-17T20:53:04.390Z,26.37
2018-09-17T20:55:32.631Z,30.80
2018-09-17T20:58:00.861Z,20.70
2018-09-17T21:00:29.063Z,26.53
2018-09-17T21:02:57.229Z,26.87
2018-09-17T21:05:25.365Z,30.40
2018-09-17T21:07:53.537Z,21.87
2018-09-17T21:10:21.672Z,26.83
2018-09-17T21:12:49.979Z,27.00
2018-09-17T21:15:18.160Z,25.93
2018-09-17T21:17:46.340Z,26.70
2018-09-17T21:20:14.542Z,22.93
2018-09-17T21:22:42.902Z,26.23
2018-09-17T21:25:11.213Z,31.83
2018-09-17T21:27:39.401Z,24.33
2018-09-17T21:30:07.736Z,25.43
2018-09-17T21:32:36.979Z,23.40
2018-09-17T21:35:05.133Z,27.93
2018-09-17T21:37:33.313Z,29.00
2018-09-17T21:40:03.014Z,25.40
2018-09-17T21:42:31.250Z,24.37
2018-09-17T21:44:59.432Z,24.47
2018-09-17T21:47:27.594Z,29.40
2018-09-17T21:49:55.824Z,23.47
2018-09-17T21:52:24.038Z,17.93
2018-09-17T21:54:52.186Z,24.90
2018-09-17T21:57:20.360Z,17.30
2018-09-17T21:59:48.515Z,24.50
2018-09-17T22:02:16.773Z,21.50
2018-09-17T22:04:44.888Z,26.13
2018-09-17T22:07:13.160Z,24.93
2018-09-17T22:09:41.412Z,24.97
2018-09-17T22:12:09.608Z,20.40
2018-09-17T22:14:37.784Z,17.17
2018-09-17T22:17:06.195Z,15.20
2018-09-17T22:19:34.433Z,19.70
2018-09-17T22:22:02.613Z,16.20
2018-09-17T22:24:30.730Z,23.57
2018-09-17T22:26:58.906Z,21.90
2018-09-17T22:29:27.102Z,20.33
2018-09-17T22:31:55.283Z,22.10
2018-09-17T22:34:23.435Z,22.53
2018-09-17T22:36:51.633Z,16.83
2018-09-17T22:39:19.786Z,20.13
2018-09-17T22:41:47.954Z,18.70
2018-09-17T22:44:16.160Z,22.50
2018-09-17T22:46:44.323Z,13.03
2018-09-17T22:49:12.482Z,12.40
2018-09-17T22:51:40.636Z,11.37
2018-09-17T22:54:08.784Z,13.23
2018-09-17T22:56:36.916Z,15.77
2018-09-17T22:59:05.190Z,20.50
2018-09-17T23:01:33.368Z,27.67
2018-09-17T23:04:01.510Z,19.03
2018-09-17T23:06:29.684Z,23.87
2018-09-17T23:08:57.991Z,16.97
2018-09-17T23:11:26.129Z,12.93
2018-09-17T23:13:54.312Z,15.40
2018-09-17T23:16:22.430Z,21.47
2018-09-17T23:18:50.597Z,16.63
2018-09-17T23:21:19.518Z,12.57
2018-09-17T23:23:47.784Z,17.63
2018-09-17T23:26:16.310Z,15.33
2018-09-17T23:28:44.645Z,15.93
2018-09-17T23:31:12.846Z,12.23
2018-09-17T23:33:41.032Z,14.90
2018-09-17T23:36:09.299Z,16.77
2018-09-17T23:38:37.584Z,11.47
2018-09-17T23:41:05.956Z,11.53
2018-09-17T23:43:34.206Z,16.30
2018-09-17T23:46:02.386Z,13.53
2018-09-17T23:48:30.624Z,22.97
2018-09-17T23:50:58.823Z,16.20
2018-09-17T23:53:27.174Z,11.70
2018-09-17T23:55:55.355Z,13.80
2018-09-17T23:58:23.593Z,12.33
